createdAt,value
2018-10-18T00:01:19.955Z,116.40
2018-10-18T00:03:47.013Z,104.93
2018-10-18T00:06:14.563Z,104.23
2018-10-18T00:08:41.572Z,101.67
2018-10-18T00:11:08.791Z,106.67
2018-10-18T00:13:35.871Z,106.60
2018-10-18T00:16:02.916Z,111.57
2018-10-18T00:18:30.163Z,118.57
2018-10-18T00:20:57.482Z,114.77
2018-10-18T00:23:24.639Z,106.73
2018-10-18T00:25:51.658Z,99.73
2018-10-18T00:28:19.016Z,109.07
2018-10-18T00:30:46.359Z,112.73
2018-10-18T00:33:13.384Z,103.07
2018-10-18T00:35:40.700Z,115.40
2018-10-18T00:38:08.021Z,108.30
2018-10-18T00:40:35.040Z,105.83
2018-10-18T00:43:02.359Z,100.07
2018-10-18T00:45:29.563Z,111.47
2018-10-18T00:47:56.881Z,106.70
2018-10-18T00:50:24.330Z,109.23
2018-10-18T00:52:51.432Z,109.60
2018-10-18T00:55:18.597Z,109.43
2018-10-18T00:57:45.954Z,109.17
2018-10-18T01:00:13.167Z,105.50
2018-10-18T01:02:40.891Z,105.90
2018-10-18T01:05:08.351Z,105.53
2018-10-18T01:07:35.476Z,109.90
2018-10-18T01:10:02.527Z,123.50
2018-10-18T01:12:29.907Z,113.60
2018-10-18T01:14:56.759Z,103.13
2018-10-18T01:17:23.771Z,104.27
2018-10-18T01:19:51.031Z,98.63
2018-10-18T01:22:18.043Z,107.97
2018-10-18T01:24:45.473Z,102.70
2018-10-18T01:27:12.808Z,103.40
2018-10-18T01:29:39.832Z,102.03
2018-10-18T01:32:06.947Z,112.33
2018-10-18T01:34:34.040Z,103.87
2018-10-18T01:37:01.063Z,106.40
2018-10-18T01:39:28.124Z,104.40
2018-10-18T01:41:55.238Z,100.17
2018-10-18T01:44:22.252Z,105.37
2018-10-18T01:46:49.316Z,97.13
2018-10-18T01:49:16.639Z,98.03
2018-10-18T01:51:43.776Z,105.40
2018-10-18T01:54:10.839Z,100.00
2018-10-18T01:56:38.104Z,104.93
2018-10-18T01:59:05.124Z,105.27
2018-10-18T02:01:32.199Z,109.63
2018-10-18T02:03:59.860Z,114.63
2018-10-18T02:06:26.886Z,112.97
2018-10-18T02:08:53.977Z,118.83
2018-10-18T02:11:21.015Z,110.30
2018-10-18T02:13:48.109Z,102.93
2018-10-18T02:16:15.084Z,109.77
2018-10-18T02:18:42.200Z,116.00
2018-10-18T02:21:09.236Z,113.17
2018-10-18T02:23:36.268Z,112.47
2018-10-18T02:26:03.635Z,121.87
2018-10-18T02:28:30.691Z,115.07
2018-10-18T02:30:57.713Z,126.50
2018-10-18T02:33:25.057Z,115.50
2018-10-18T02:35:52.111Z,124.57
2018-10-18T02:38:19.263Z,122.80
2018-10-18T02:40:46.287Z,136.07
2018-10-18T02:43:13.299Z,127.57
2018-10-18T02:45:40.347Z,131.13
2018-10-18T02:48:07.495Z,122.37
2018-10-18T02:50:34.464Z,126.77
2018-10-18T02:53:01.600Z,134.80
2018-10-18T02:55:28.648Z,135.10
2018-10-18T02:57:55.692Z,134.57
2018-10-18T03:00:22.812Z,126.40
2018-10-18T03:02:50.316Z,136.97
2018-10-18T03:05:17.335Z,130.73
2018-10-18T03:07:44.391Z,138.00
2018-10-18T03:10:11.472Z,144.00
2018-10-18T03:12:38.483Z,123.70
2018-10-18T03:15:05.573Z,118.13
2018-10-18T03:17:33.136Z,133.80
2018-10-18T03:20:00.151Z,125.70
2018-10-18T03:22:27.220Z,132.70
2018-10-18T03:24:54.258Z,138.07
2018-10-18T03:27:21.390Z,137.07
2018-10-18T03:29:48.418Z,124.70
2018-10-18T03:32:15.492Z,122.73
2018-10-18T03:34:42.512Z,128.23
2018-10-18T03:37:09.583Z,124.50
2018-10-18T03:39:36.639Z,124.20
2018-10-18T03:42:03.728Z,121.13
2018-10-18T03:44:30.697Z,121.67
2018-10-18T03:46:58.116Z,120.13
2018-10-18T03:49:25.230Z,117.07
2018-10-18T03:51:52.251Z,120.43
2018-10-18T03:54:19.381Z,113.87
2018-10-18T03:56:46.835Z,125.40
2018-10-18T03:59:13.851Z,121.93
2018-10-18T04:01:41.136Z,133.23
2018-10-18T04:04:08.169Z,129.23
2018-10-18T04:06:35.181Z,126.23
2018-10-18T04:09:02.572Z,151.73
2018-10-18T04:11:29.588Z,134.83
2018-10-18T04:13:56.733Z,136.20
2018-10-18T04:16:24.125Z,136.77
2018-10-18T04:18:51.134Z,135.63
2018-10-18T04:21:18.175Z,125.60
2018-10-18T04:23:45.207Z,129.43
2018-10-18T04:26:12.216Z,134.10
2018-10-18T04:28:39.227Z,128.70
2018-10-18T04:31:06.304Z,136.63
2018-10-18T04:33:33.323Z,128.27
2018-10-18T04:36:00.473Z,129.50
2018-10-18T04:38:27.495Z,128.40
2018-10-18T04:40:54.508Z,119.00
2018-10-18T04:43:21.519Z,132.23
2018-10-18T04:45:48.582Z,137.50
2018-10-18T04:48:15.727Z,139.37
2018-10-18T04:50:42.747Z,131.97
2018-10-18T04:53:10.142Z,141.80
2018-10-18T04:55:37.183Z,129.40
2018-10-18T04:58:04.283Z,134.03
2018-10-18T05:00:31.375Z,137.60
2018-10-18T05:02:58.391Z,127.07
2018-10-18T05:05:31.297Z,121.43
2018-10-18T05:07:58.375Z,122.10
2018-10-18T05:10:25.388Z,121.47
2018-10-18T05:12:52.429Z,127.60
2018-10-18T05:15:19.457Z,122.50
2018-10-18T05:17:46.479Z,141.73
2018-10-18T05:20:13.499Z,138.30
2018-10-18T05:22:40.567Z,125.13
2018-10-18T05:25:07.709Z,118.03
2018-10-18T05:27:34.813Z,125.07
2018-10-18T05:30:02.332Z,120.93
2018-10-18T05:32:29.369Z,115.33
2018-10-18T05:34:56.407Z,113.80
2018-10-18T05:37:23.694Z,113.10
2018-10-18T05:39:50.832Z,129.70
2018-10-18T05:42:17.887Z,115.20
2018-10-18T05:44:45.223Z,113.87
2018-10-18T05:47:12.361Z,115.40
2018-10-18T05:49:39.312Z,117.73
2018-10-18T05:52:06.672Z,122.70
2018-10-18T05:54:33.684Z,120.97
2018-10-18T05:57:00.720Z,128.43
2018-10-18T05:59:28.307Z,135.03
2018-10-18T06:01:55.335Z,128.73
2018-10-18T06:04:22.352Z,135.50
2018-10-18T06:06:49.420Z,135.33
2018-10-18T06:09:20.115Z,133.57
2018-10-18T06:11:47.163Z,120.53
2018-10-18T06:14:14.299Z,121.73
2018-10-18T06:16:41.396Z,123.03
2018-10-18T06:19:08.597Z,118.83
2018-10-18T06:21:35.960Z,116.83
2018-10-18T06:24:02.987Z,108.33
2018-10-18T06:26:30.005Z,128.30
2018-10-18T06:28:57.438Z,134.13
2018-10-18T06:31:24.448Z,121.67
2018-10-18T06:33:51.486Z,137.67
2018-10-18T06:36:18.750Z,130.20
2018-10-18T06:38:45.795Z,119.03
2018-10-18T06:41:12.904Z,135.00
2018-10-18T06:43:40.783Z,130.47
2018-10-18T06:46:10.036Z,122.83
2018-10-18T06:48:37.059Z,129.70
2018-10-18T06:51:04.628Z,138.60
2018-10-18T06:53:31.644Z,128.93
2018-10-18T06:55:58.948Z,128.80
2018-10-18T06:58:26.279Z,129.73
2018-10-18T07:00:53.292Z,148.40
2018-10-18T07:03:20.311Z,149.07
2018-10-18T07:05:47.563Z,129.80
2018-10-18T07:08:14.586Z,131.43
2018-10-18T07:10:41.671Z,138.43
2018-10-18T07:13:08.683Z,150.73
2018-10-18T07:15:35.699Z,136.77
2018-10-18T07:18:02.818Z,123.53
2018-10-18T07:20:29.845Z,127.73
2018-10-18T07:22:56.899Z,131.37
2018-10-18T07:25:24.013Z,122.07
2018-10-18T07:27:50.971Z,130.40
2018-10-18T07:30:18.146Z,134.93
2018-10-18T07:32:45.068Z,123.57
2018-10-18T07:35:13.520Z,123.10
2018-10-18T07:37:40.496Z,139.40
2018-10-18T07:40:08.250Z,118.53
2018-10-18T07:42:35.612Z,122.10
2018-10-18T07:45:02.632Z,131.00
2018-10-18T07:47:29.691Z,115.80
2018-10-18T07:49:56.716Z,113.63
2018-10-18T07:52:23.768Z,123.43
2018-10-18T07:54:50.848Z,130.63
2018-10-18T07:57:17.921Z,115.83
2018-10-18T07:59:44.949Z,130.00
2018-10-18T08:02:11.975Z,114.40
2018-10-18T08:04:39.380Z,105.67
2018-10-18T08:07:06.524Z,121.17
2018-10-18T08:09:33.539Z,114.77
2018-10-18T08:12:00.811Z,113.63
2018-10-18T08:14:27.861Z,109.57
2018-10-18T08:16:54.924Z,121.27
2018-10-18T08:19:21.943Z,104.60
2018-10-18T08:21:48.975Z,96.73
2018-10-18T08:24:16.015Z,105.17
2018-10-18T08:26:43.383Z,96.50
2018-10-18T08:29:10.448Z,99.97
2018-10-18T08:31:37.617Z,102.20
2018-10-18T08:34:04.607Z,107.30
2018-10-18T08:36:31.641Z,104.10
2018-10-18T08:38:58.659Z,104.97
2018-10-18T08:41:25.692Z,112.57
2018-10-18T08:43:52.751Z,98.10
2018-10-18T08:46:19.819Z,102.87
2018-10-18T08:48:46.959Z,101.93
2018-10-18T08:51:13.996Z,94.70
2018-10-18T08:53:41.104Z,99.67
2018-10-18T08:56:08.388Z,85.50
2018-10-18T08:58:35.624Z,94.47
2018-10-18T09:01:03.005Z,95.83
2018-10-18T09:03:30.127Z,97.63
2018-10-18T09:05:57.227Z,100.53
2018-10-18T09:08:24.239Z,107.00
2018-10-18T09:10:51.575Z,93.83
2018-10-18T09:13:18.683Z,84.70
2018-10-18T09:15:45.661Z,93.23
2018-10-18T09:18:13.072Z,90.47
2018-10-18T09:20:40.290Z,111.90
2018-10-18T09:23:07.319Z,94.73
2018-10-18T09:25:34.679Z,99.20
2018-10-18T09:28:01.775Z,89.30
2018-10-18T09:30:28.879Z,88.97
2018-10-18T09:32:56.136Z,86.67
2018-10-18T09:35:23.172Z,80.43
2018-10-18T09:37:50.187Z,80.57
2018-10-18T09:40:17.268Z,94.17
2018-10-18T09:42:44.384Z,74.83
2018-10-18T09:45:12.117Z,83.83
2018-10-18T09:47:39.451Z,80.73
2018-10-18T09:50:07.236Z,81.00
2018-10-18T09:52:34.282Z,86.20
2018-10-18T09:55:01.411Z,96.03
2018-10-18T09:57:28.535Z,96.60
2018-10-18T09:59:55.576Z,85.23
2018-10-18T10:02:28.581Z,97.47
2018-10-18T10:04:55.615Z,87.57
2018-10-18T10:07:22.799Z,86.53
2018-10-18T10:09:49.899Z,88.67
2018-10-18T10:12:17.412Z,82.83
2018-10-18T10:14:44.536Z,86.27
2018-10-18T10:17:11.625Z,94.40
2018-10-18T10:19:38.635Z,80.50
2018-10-18T10:22:05.684Z,77.47
2018-10-18T10:24:32.837Z,69.33
2018-10-18T10:26:59.848Z,86.03
2018-10-18T10:29:26.909Z,67.33
2018-10-18T10:31:54.001Z,71.50
2018-10-18T10:34:21.269Z,66.87
2018-10-18T10:36:48.369Z,73.93
2018-10-18T10:39:15.773Z,79.60
2018-10-18T10:41:42.812Z,81.03
2018-10-18T10:44:10.360Z,98.23
2018-10-18T10:46:39.240Z,86.80
2018-10-18T10:49:06.661Z,105.73
2018-10-18T10:51:33.760Z,90.53
2018-10-18T10:54:01.147Z,89.83
2018-10-18T10:56:28.529Z,89.80
2018-10-18T10:58:55.675Z,88.60
2018-10-18T11:01:25.163Z,84.10
2018-10-18T11:03:53.680Z,74.73
2018-10-18T11:06:20.974Z,76.47
2018-10-18T11:08:48.152Z,84.63
2018-10-18T11:11:15.924Z,83.73
2018-10-18T11:13:43.026Z,75.00
2018-10-18T11:16:10.094Z,74.57
2018-10-18T11:18:37.853Z,75.33
2018-10-18T11:21:05.960Z,72.10
2018-10-18T11:23:34.088Z,75.10
2018-10-18T11:26:01.207Z,84.67
2018-10-18T11:28:28.177Z,71.43
2018-10-18T11:30:55.252Z,82.57
2018-10-18T11:33:22.352Z,68.20
2018-10-18T11:35:49.424Z,66.10
2018-10-18T11:38:16.848Z,68.10
2018-10-18T11:40:43.844Z,73.03
2018-10-18T11:43:11.204Z,72.13
2018-10-18T11:45:38.384Z,70.20
2018-10-18T11:48:05.991Z,70.10
2018-10-18T11:50:33.021Z,62.20
2018-10-18T11:53:00.333Z,66.33
2018-10-18T11:55:28.188Z,77.03
2018-10-18T11:57:55.493Z,63.80
2018-10-18T12:00:23.165Z,78.57
2018-10-18T12:02:50.481Z,69.93
2018-10-18T12:05:17.842Z,72.47
2018-10-18T12:07:45.096Z,71.93
2018-10-18T12:10:12.757Z,70.40
2018-10-18T12:12:40.065Z,71.43
2018-10-18T12:15:09.656Z,73.37
2018-10-18T12:17:36.960Z,77.33
2018-10-18T12:20:05.036Z,70.13
2018-10-18T12:22:32.543Z,75.43
2018-10-18T12:24:59.637Z,67.13
2018-10-18T12:27:27.079Z,62.90
2018-10-18T12:29:54.423Z,70.73
2018-10-18T12:32:21.576Z,65.20
2018-10-18T12:34:48.617Z,66.40
2018-10-18T12:37:15.963Z,69.73
2018-10-18T12:39:43.499Z,76.97
2018-10-18T12:42:10.444Z,85.60
2018-10-18T12:44:39.660Z,61.70
2018-10-18T12:47:08.778Z,75.70
2018-10-18T12:49:36.317Z,77.20
2018-10-18T12:52:04.172Z,78.33
2018-10-18T12:54:31.681Z,76.83
2018-10-18T12:56:58.904Z,73.73
2018-10-18T12:59:26.461Z,79.73
2018-10-18T13:01:53.856Z,74.87
2018-10-18T13:04:21.100Z,79.17
2018-10-18T13:06:48.473Z,79.10
2018-10-18T13:09:15.777Z,89.83
2018-10-18T13:11:43.156Z,83.07
2018-10-18T13:14:13.722Z,78.33
2018-10-18T13:16:40.912Z,81.10
2018-10-18T13:19:08.478Z,83.83
2018-10-18T13:21:35.866Z,78.87
2018-10-18T13:24:03.016Z,90.77
2018-10-18T13:26:30.295Z,92.50
2018-10-18T13:28:57.588Z,90.70
2018-10-18T13:31:24.940Z,90.70
2018-10-18T13:33:52.371Z,102.37
2018-10-18T13:36:19.936Z,105.60
2018-10-18T13:38:47.188Z,104.30
2018-10-18T13:41:14.524Z,105.00
2018-10-18T13:43:41.736Z,114.87
2018-10-18T13:46:09.003Z,103.70
2018-10-18T13:48:36.198Z,102.80
2018-10-18T13:51:03.772Z,104.43
2018-10-18T13:53:32.925Z,101.63
2018-10-18T13:56:00.025Z,103.60
2018-10-18T13:58:27.090Z,100.30
2018-10-18T14:00:54.361Z,104.47
2018-10-18T14:03:21.720Z,123.33
2018-10-18T14:05:49.113Z,98.53
2018-10-18T14:08:16.262Z,98.93
2018-10-18T14:10:43.313Z,92.97
2018-10-18T14:13:10.718Z,103.73
2018-10-18T14:15:37.813Z,102.70
2018-10-18T14:18:04.965Z,91.07
2018-10-18T14:20:32.357Z,89.37
2018-10-18T14:22:59.439Z,98.97
2018-10-18T14:25:26.524Z,79.90
2018-10-18T14:27:53.592Z,89.07
2018-10-18T14:30:20.770Z,87.00
2018-10-18T14:32:47.724Z,85.17
2018-10-18T14:35:15.097Z,98.93
2018-10-18T14:37:42.164Z,95.60
2018-10-18T14:40:10.760Z,94.40
2018-10-18T14:42:37.948Z,95.27
2018-10-18T14:45:05.465Z,97.13
2018-10-18T14:47:32.565Z,101.47
2018-10-18T14:49:59.641Z,99.70
2018-10-18T14:52:26.660Z,117.33
2018-10-18T14:54:53.766Z,109.63
2018-10-18T14:57:21.160Z,104.17
2018-10-18T14:59:48.316Z,113.83
2018-10-18T15:02:15.640Z,116.73
2018-10-18T15:04:42.982Z,110.03
2018-10-18T15:07:10.071Z,111.47
2018-10-18T15:09:37.204Z,103.30
2018-10-18T15:12:04.828Z,110.83
2018-10-18T15:14:31.893Z,107.67
2018-10-18T15:16:59.008Z,125.40
2018-10-18T15:19:26.319Z,111.77
2018-10-18T15:21:53.358Z,107.73
2018-10-18T15:24:20.415Z,104.17
2018-10-18T15:26:47.597Z,108.90
2018-10-18T15:29:14.835Z,110.47
2018-10-18T15:31:41.763Z,115.30
2018-10-18T15:34:09.181Z,109.67
2018-10-18T15:36:36.227Z,119.20
2018-10-18T15:39:04.863Z,112.27
2018-10-18T15:41:32.102Z,116.53
2018-10-18T15:43:59.147Z,101.13
2018-10-18T15:46:26.200Z,111.67
2018-10-18T15:48:53.241Z,112.13
2018-10-18T15:51:20.291Z,101.10
2018-10-18T15:53:47.360Z,108.77
2018-10-18T15:56:14.800Z,108.03
2018-10-18T15:58:41.847Z,110.47
2018-10-18T16:01:08.959Z,98.10
2018-10-18T16:03:36.296Z,104.07
2018-10-18T16:06:03.404Z,105.20
2018-10-18T16:08:30.502Z,99.17
2018-10-18T16:10:57.852Z,102.20
2018-10-18T16:13:24.913Z,102.20
2018-10-18T16:15:51.949Z,96.73
2018-10-18T16:18:19.452Z,100.77
2018-10-18T16:20:53.121Z,91.60
2018-10-18T16:23:20.159Z,98.90
2018-10-18T16:25:47.227Z,108.30
2018-10-18T16:28:14.240Z,96.63
2018-10-18T16:30:41.346Z,96.53
2018-10-18T16:33:08.372Z,99.43
2018-10-18T16:35:35.488Z,103.93
2018-10-18T16:38:02.759Z,123.60
2018-10-18T16:40:29.805Z,117.43
2018-10-18T16:42:56.836Z,97.60
2018-10-18T16:45:23.909Z,103.83
2018-10-18T16:47:50.979Z,102.47
2018-10-18T16:50:18.082Z,100.80
2018-10-18T16:52:45.824Z,95.03
2018-10-18T16:55:12.896Z,89.73
2018-10-18T16:57:39.944Z,104.43
2018-10-18T17:00:07.716Z,105.40
2018-10-18T17:02:34.739Z,93.97
2018-10-18T17:05:01.773Z,100.10
2018-10-18T17:07:28.830Z,99.37
2018-10-18T17:09:56.080Z,108.73
2018-10-18T17:12:23.177Z,89.03
2018-10-18T17:14:50.216Z,82.70
2018-10-18T17:17:17.246Z,71.23
2018-10-18T17:19:44.274Z,65.90
2018-10-18T17:22:11.594Z,64.70
2018-10-18T17:24:38.633Z,61.93
2018-10-18T17:27:05.873Z,61.70
2018-10-18T17:29:32.860Z,59.60
2018-10-18T17:31:59.905Z,52.03
2018-10-18T17:34:26.935Z,49.50
2018-10-18T17:36:53.985Z,45.80
2018-10-18T17:39:21.040Z,38.27
2018-10-18T17:41:48.079Z,37.93
2018-10-18T17:44:15.325Z,40.03
2018-10-18T17:46:42.250Z,42.77
2018-10-18T17:49:09.284Z,46.37
2018-10-18T17:51:36.688Z,53.97
2018-10-18T17:54:03.780Z,63.30
2018-10-18T17:56:30.812Z,67.10
2018-10-18T17:58:57.837Z,71.87
2018-10-18T18:01:24.943Z,68.30
2018-10-18T18:03:52.085Z,80.50
2018-10-18T18:06:19.592Z,69.17
2018-10-18T18:08:46.505Z,71.33
2018-10-18T18:11:13.588Z,72.10
2018-10-18T18:13:40.751Z,84.33
2018-10-18T18:16:07.819Z,70.97
2018-10-18T18:18:34.892Z,84.50
2018-10-18T18:21:02.273Z,66.87
2018-10-18T18:23:29.380Z,64.77
2018-10-18T18:25:56.467Z,63.90
2018-10-18T18:28:23.992Z,59.37
2018-10-18T18:30:51.095Z,59.63
2018-10-18T18:33:18.155Z,57.80
2018-10-18T18:35:45.545Z,60.90
2018-10-18T18:38:12.615Z,61.07
2018-10-18T18:40:39.644Z,57.60
2018-10-18T18:43:07.058Z,64.90
2018-10-18T18:45:35.146Z,59.80
2018-10-18T18:48:02.560Z,61.93
2018-10-18T18:50:29.936Z,54.80
2018-10-18T18:52:57.089Z,61.53
2018-10-18T18:55:24.180Z,64.63
2018-10-18T18:57:51.288Z,62.53
2018-10-18T19:00:18.457Z,50.63
2018-10-18T19:02:45.515Z,53.63
2018-10-18T19:05:12.839Z,57.90
2018-10-18T19:07:39.902Z,57.60
2018-10-18T19:10:07.372Z,59.67
2018-10-18T19:12:34.683Z,51.80
2018-10-18T19:15:01.916Z,49.97
2018-10-18T19:17:28.924Z,56.53
2018-10-18T19:19:55.980Z,49.80
2018-10-18T19:22:23.029Z,43.13
2018-10-18T19:24:50.248Z,44.83
2018-10-18T19:27:17.554Z,48.87
2018-10-18T19:29:44.582Z,45.17
2018-10-18T19:32:11.766Z,34.13
2018-10-18T19:34:39.148Z,38.13
2018-10-18T19:37:06.263Z,34.43
2018-10-18T19:39:33.314Z,35.00
2018-10-18T19:42:00.375Z,31.23
2018-10-18T19:44:27.596Z,35.97
2018-10-18T19:46:54.696Z,26.03
2018-10-18T19:49:21.995Z,26.60
2018-10-18T19:51:49.047Z,28.40
2018-10-18T19:54:16.405Z,37.60
2018-10-18T19:56:43.705Z,32.53
2018-10-18T19:59:10.810Z,25.93
2018-10-18T20:01:38.599Z,29.80
2018-10-18T20:04:06.130Z,28.30
2018-10-18T20:06:33.197Z,31.57
2018-10-18T20:09:00.215Z,28.90
2018-10-18T20:11:27.408Z,23.77
2018-10-18T20:13:54.496Z,37.37
2018-10-18T20:16:21.525Z,24.10
2018-10-18T20:18:48.878Z,27.17
2018-10-18T20:21:16.197Z,22.57
2018-10-18T20:23:43.315Z,21.13
2018-10-18T20:26:10.979Z,20.57
2018-10-18T20:28:37.788Z,20.67
2018-10-18T20:31:05.656Z,24.50
2018-10-18T20:33:32.861Z,26.77
2018-10-18T20:35:59.969Z,27.80
2018-10-18T20:38:27.071Z,18.93
2018-10-18T20:40:54.557Z,23.70
2018-10-18T20:43:21.588Z,21.17
2018-10-18T20:45:48.661Z,22.23
2018-10-18T20:48:16.021Z,16.40
2018-10-18T20:50:43.184Z,14.80
2018-10-18T20:53:10.255Z,27.47
2018-10-18T20:55:37.564Z,19.40
2018-10-18T20:58:04.776Z,15.63
2018-10-18T21:00:31.820Z,18.50
2018-10-18T21:02:59.250Z,19.53
2018-10-18T21:05:26.337Z,24.37
2018-10-18T21:07:53.378Z,20.03
2018-10-18T21:10:20.472Z,14.40
2018-10-18T21:12:47.504Z,16.23
2018-10-18T21:15:14.770Z,15.83
2018-10-18T21:17:42.214Z,16.67
2018-10-18T21:20:09.624Z,16.63
2018-10-18T21:22:36.656Z,18.60
2018-10-18T21:25:05.437Z,13.37
2018-10-18T21:27:32.491Z,16.07
2018-10-18T21:29:59.560Z,16.73
2018-10-18T21:32:26.969Z,16.13
2018-10-18T21:34:54.035Z,20.67
2018-10-18T21:37:21.066Z,10.53
2018-10-18T21:39:48.348Z,14.33
2018-10-18T21:42:15.388Z,17.60
2018-10-18T21:44:42.472Z,13.90
2018-10-18T21:47:10.025Z,13.50
2018-10-18T21:49:37.123Z,10.40
2018-10-18T21:52:04.156Z,10.20
2018-10-18T21:54:31.527Z,15.80
2018-10-18T21:56:58.678Z,13.03
2018-10-18T21:59:25.736Z,13.40
2018-10-18T22:01:53.071Z,10.63
2018-10-18T22:04:20.162Z,12.20
2018-10-18T22:06:47.804Z,8.80
2018-10-18T22:09:15.453Z,12.73
2018-10-18T22:11:42.319Z,10.03
2018-10-18T22:14:09.478Z,11.50
2018-10-18T22:16:37.376Z,7.73
2018-10-18T22:19:05.204Z,10.30
2018-10-18T22:21:32.395Z,6.50
2018-10-18T22:23:59.695Z,10.13
2018-10-18T22:26:26.726Z,13.20
2018-10-18T22:28:54.091Z,10.37
2018-10-18T22:31:21.491Z,9.90
2018-10-18T22:33:48.683Z,11.73
2018-10-18T22:36:15.936Z,11.97
2018-10-18T22:38:43.195Z,8.00
2018-10-18T22:41:10.341Z,7.00
2018-10-18T22:43:37.432Z,7.27
2018-10-18T22:46:04.808Z,11.80
2018-10-18T22:48:31.837Z,6.00
2018-10-18T22:50:59.205Z,13.57
2018-10-18T22:53:26.923Z,9.53
2018-10-18T22:55:54.065Z,9.40
2018-10-18T22:58:21.176Z,8.53
2018-10-18T23:00:48.951Z,7.70
2018-10-18T23:03:17.577Z,11.07
2018-10-18T23:05:44.780Z,10.73
2018-10-18T23:08:12.582Z,11.80
2018-10-18T23:10:39.651Z,13.90
2018-10-18T23:13:07.008Z,8.27
2018-10-18T23:15:34.080Z,10.00
2018-10-18T23:18:01.244Z,7.23
2018-10-18T23:20:28.518Z,12.90
2018-10-18T23:22:55.890Z,10.13
2018-10-18T23:25:22.929Z,12.53
2018-10-18T23:27:50.027Z,10.77
2018-10-18T23:30:17.087Z,12.90
2018-10-18T23:32:44.204Z,13.30
2018-10-18T23:35:11.256Z,9.50
2018-10-18T23:37:38.376Z,11.10
2018-10-18T23:40:05.482Z,12.57
2018-10-18T23:42:32.615Z,8.37
2018-10-18T23:44:59.731Z,7.03
2018-10-18T23:47:26.906Z,13.53
2018-10-18T23:49:53.955Z,9.70
2018-10-18T23:52:21.292Z,8.33
2018-10-18T23:54:48.415Z,7.10
2018-10-18T23:57:15.628Z,14.77
2018-10-18T23:59:42.519Z,10.47
